DAL2326 KJAX-KATL
Flight info
| Callsign | DAL2326 |
|---|---|
| Flight time | 0h 46m |
| Altitude | 27000 |
| Route | BRSTL1 BAXLY LAIRI LARZZ JJEDI4 |
| Aircraft | B739/M-SDE2E3FGHIRWXY/LB1 |
Departure
| Time | 2026-05-05 17:11 |
|---|---|
| Airport | Jacksonville International Airport (KJAX) |
Arrival
| Time | 2026-05-05 17:57 |
|---|---|
| Airport | Hartsfield Jackson Atlanta International Airport (KATL) |
| Time | Latitude | Longitude | Altitude | Speed | Heading |
|---|---|---|---|---|---|
| 2026-05-05 16:51 | 30.49372 | -81.68624 | 33 ft | 0 kts | 128° |
| 2026-05-05 17:04 | 30.49381 | -81.68639 | 41 ft | 9 kts | 130° |
| 2026-05-05 17:05 | 30.49467 | -81.68630 | 34 ft | 10 kts | 217° |
| 2026-05-05 17:05 | 30.49455 | -81.68651 | 34 ft | 13 kts | 238° |
| 2026-05-05 17:05 | 30.49410 | -81.68747 | 34 ft | 13 kts | 237° |
| 2026-05-05 17:05 | 30.49383 | -81.68844 | 34 ft | 13 kts | 265° |
| 2026-05-05 17:06 | 30.49384 | -81.68946 | 34 ft | 13 kts | 289° |
| 2026-05-05 17:06 | 30.49446 | -81.69012 | 34 ft | 12 kts | 329° |
| 2026-05-05 17:06 | 30.49532 | -81.69074 | 34 ft | 18 kts | 329° |
| 2026-05-05 17:06 | 30.49655 | -81.69160 | 34 ft | 21 kts | 320° |
| 2026-05-05 17:07 | 30.49654 | -81.69320 | 35 ft | 21 kts | 249° |
| 2026-05-05 17:07 | 30.49606 | -81.69474 | 33 ft | 20 kts | 250° |
| 2026-05-05 17:07 | 30.49558 | -81.69623 | 34 ft | 19 kts | 250° |
| 2026-05-05 17:07 | 30.49511 | -81.69767 | 34 ft | 19 kts | 247° |
| 2026-05-05 17:08 | 30.49485 | -81.69910 | 34 ft | 18 kts | 292° |
| 2026-05-05 17:08 | 30.49593 | -81.69973 | 33 ft | 17 kts | 345° |
| 2026-05-05 17:08 | 30.49637 | -81.69948 | 34 ft | 0 kts | 71° |
| 2026-05-05 17:09 | 30.49655 | -81.69885 | 34 ft | 32 kts | 71° |
| 2026-05-05 17:10 | 30.49802 | -81.69404 | 36 ft | 93 kts | 70° |
| 2026-05-05 17:10 | 30.50081 | -81.68501 | 37 ft | 141 kts | 70° |
| 2026-05-05 17:10 | 30.50448 | -81.67304 | 136 ft | 167 kts | 70° |
| 2026-05-05 17:10 | 30.50855 | -81.66020 | 567 ft | 171 kts | 70° |
| 2026-05-05 17:11 | 30.51282 | -81.64741 | 1117 ft | 168 kts | 70° |
| 2026-05-05 17:11 | 30.51673 | -81.63454 | 1665 ft | 174 kts | 72° |
| 2026-05-05 17:11 | 30.52061 | -81.62050 | 1941 ft | 192 kts | 75° |
| 2026-05-05 17:11 | 30.52483 | -81.60487 | 2123 ft | 213 kts | 74° |
| 2026-05-05 17:12 | 30.52967 | -81.58776 | 2330 ft | 232 kts | 70° |
| 2026-05-05 17:12 | 30.53980 | -81.57240 | 2487 ft | 256 kts | 33° |
| 2026-05-05 17:12 | 30.55686 | -81.56671 | 3073 ft | 263 kts | 2° |
| 2026-05-05 17:12 | 30.57489 | -81.57058 | 3743 ft | 266 kts | 335° |
| 2026-05-05 17:13 | 30.59007 | -81.58273 | 4455 ft | 265 kts | 317° |
| 2026-05-05 17:13 | 30.60352 | -81.59722 | 5207 ft | 263 kts | 315° |
| 2026-05-05 17:13 | 30.61686 | -81.61205 | 5858 ft | 268 kts | 314° |
| 2026-05-05 17:13 | 30.63038 | -81.62714 | 6704 ft | 271 kts | 315° |
| 2026-05-05 17:14 | 30.64416 | -81.64246 | 7407 ft | 274 kts | 314° |
| 2026-05-05 17:14 | 30.65796 | -81.65775 | 8138 ft | 275 kts | 314° |
| 2026-05-05 17:14 | 30.67206 | -81.67332 | 8682 ft | 282 kts | 314° |
| 2026-05-05 17:14 | 30.68617 | -81.68888 | 9398 ft | 284 kts | 314° |
| 2026-05-05 17:15 | 30.70051 | -81.70464 | 10144 ft | 285 kts | 314° |
| 2026-05-05 17:15 | 30.71531 | -81.72094 | 10435 ft | 303 kts | 314° |
| 2026-05-05 17:15 | 30.73116 | -81.73841 | 10597 ft | 324 kts | 314° |
| 2026-05-05 17:15 | 30.74798 | -81.75692 | 10803 ft | 341 kts | 314° |
| 2026-05-05 17:16 | 30.76547 | -81.77614 | 11343 ft | 348 kts | 315° |
| 2026-05-05 17:16 | 30.78290 | -81.79529 | 12038 ft | 348 kts | 315° |
| 2026-05-05 17:16 | 30.80052 | -81.81466 | 12744 ft | 350 kts | 315° |
| 2026-05-05 17:16 | 30.81828 | -81.83420 | 13441 ft | 352 kts | 315° |
| 2026-05-05 17:17 | 30.83613 | -81.85386 | 14064 ft | 354 kts | 315° |
| 2026-05-05 17:17 | 30.85406 | -81.87363 | 14657 ft | 356 kts | 315° |
| 2026-05-05 17:17 | 30.87269 | -81.89288 | 15282 ft | 359 kts | 321° |
| 2026-05-05 17:17 | 30.89384 | -81.90868 | 15915 ft | 362 kts | 327° |
| 2026-05-05 17:18 | 30.91560 | -81.92351 | 16538 ft | 364 kts | 327° |
| 2026-05-05 17:18 | 30.93745 | -81.93857 | 17151 ft | 366 kts | 327° |
| 2026-05-05 17:18 | 30.95940 | -81.95391 | 17725 ft | 368 kts | 326° |
| 2026-05-05 17:18 | 30.98116 | -81.96903 | 18344 ft | 370 kts | 328° |
| 2026-05-05 17:19 | 31.00453 | -81.98207 | 18859 ft | 374 kts | 334° |
| 2026-05-05 17:19 | 31.02873 | -81.99364 | 19344 ft | 378 kts | 335° |
| 2026-05-05 17:19 | 31.05320 | -82.00497 | 19866 ft | 379 kts | 335° |
| 2026-05-05 17:19 | 31.07773 | -82.01629 | 20404 ft | 379 kts | 334° |
| 2026-05-05 17:20 | 31.10226 | -82.02771 | 20959 ft | 380 kts | 334° |
| 2026-05-05 17:20 | 31.12686 | -82.03926 | 21470 ft | 382 kts | 334° |
| 2026-05-05 17:20 | 31.15153 | -82.05094 | 21991 ft | 383 kts | 333° |
| 2026-05-05 17:20 | 31.17630 | -82.06272 | 22491 ft | 384 kts | 333° |
| 2026-05-05 17:21 | 31.20110 | -82.07456 | 22982 ft | 385 kts | 333° |
| 2026-05-05 17:21 | 31.22597 | -82.08645 | 23432 ft | 387 kts | 333° |
| 2026-05-05 17:21 | 31.25102 | -82.09844 | 23850 ft | 389 kts | 333° |
| 2026-05-05 17:22 | 31.30122 | -82.12249 | 24663 ft | 391 kts | 333° |
| 2026-05-05 17:22 | 31.32606 | -82.13439 | 25140 ft | 389 kts | 333° |
| 2026-05-05 17:22 | 31.35099 | -82.14633 | 25739 ft | 385 kts | 333° |
| 2026-05-05 17:22 | 31.37566 | -82.15816 | 26353 ft | 381 kts | 333° |
| 2026-05-05 17:23 | 31.40014 | -82.16991 | 26868 ft | 380 kts | 333° |
| 2026-05-05 17:23 | 31.42468 | -82.18171 | 27072 ft | 382 kts | 333° |
| 2026-05-05 17:23 | 31.44929 | -82.19355 | 27088 ft | 381 kts | 333° |
| 2026-05-05 17:23 | 31.46554 | -82.20137 | 27085 ft | 381 kts | 333° |
| 2026-05-05 17:24 | 31.49006 | -82.21317 | 27089 ft | 381 kts | 333° |
| 2026-05-05 17:24 | 31.51461 | -82.22500 | 27103 ft | 381 kts | 333° |
| 2026-05-05 17:24 | 31.54718 | -82.24070 | 27101 ft | 381 kts | 333° |
| 2026-05-05 17:24 | 31.56378 | -82.24870 | 27115 ft | 382 kts | 333° |
| 2026-05-05 17:25 | 31.58840 | -82.26058 | 27110 ft | 383 kts | 333° |
| 2026-05-05 17:25 | 31.60469 | -82.26845 | 27102 ft | 383 kts | 333° |
| 2026-05-05 17:25 | 31.63737 | -82.28423 | 27094 ft | 383 kts | 333° |
| 2026-05-05 17:25 | 31.66203 | -82.29614 | 27099 ft | 383 kts | 333° |
| 2026-05-05 17:26 | 31.68669 | -82.30807 | 27087 ft | 383 kts | 333° |
| 2026-05-05 17:26 | 31.71134 | -82.31999 | 27088 ft | 383 kts | 333° |
| 2026-05-05 17:26 | 31.73573 | -82.33253 | 27079 ft | 380 kts | 328° |
| 2026-05-05 17:26 | 31.75832 | -82.34839 | 27085 ft | 377 kts | 322° |
| 2026-05-05 17:27 | 31.77862 | -82.36759 | 27098 ft | 375 kts | 317° |
| 2026-05-05 17:27 | 31.79852 | -82.38757 | 27085 ft | 375 kts | 317° |
| 2026-05-05 17:27 | 31.81809 | -82.40723 | 27075 ft | 375 kts | 317° |
| 2026-05-05 17:27 | 31.83797 | -82.42712 | 27076 ft | 374 kts | 317° |
| 2026-05-05 17:28 | 31.85791 | -82.44701 | 27109 ft | 375 kts | 317° |
| 2026-05-05 17:28 | 31.87781 | -82.46681 | 27087 ft | 375 kts | 317° |
| 2026-05-05 17:28 | 31.89776 | -82.48666 | 27091 ft | 376 kts | 317° |
| 2026-05-05 17:28 | 31.91777 | -82.50655 | 27091 ft | 376 kts | 317° |
| 2026-05-05 17:29 | 31.93779 | -82.52648 | 27100 ft | 376 kts | 317° |
| 2026-05-05 17:29 | 31.95780 | -82.54639 | 27100 ft | 376 kts | 317° |
| 2026-05-05 17:29 | 31.97773 | -82.56638 | 27097 ft | 376 kts | 317° |
| 2026-05-05 17:29 | 31.99752 | -82.58647 | 27100 ft | 376 kts | 317° |
| 2026-05-05 17:30 | 32.01704 | -82.60638 | 27097 ft | 376 kts | 317° |
| 2026-05-05 17:30 | 32.03678 | -82.62655 | 27097 ft | 376 kts | 316° |
| 2026-05-05 17:30 | 32.05651 | -82.64671 | 27096 ft | 376 kts | 316° |
| 2026-05-05 17:30 | 32.07629 | -82.66693 | 27087 ft | 376 kts | 317° |
| 2026-05-05 17:31 | 32.09607 | -82.68713 | 27091 ft | 376 kts | 317° |
| 2026-05-05 17:31 | 32.11580 | -82.70729 | 27091 ft | 376 kts | 317° |
| 2026-05-05 17:31 | 32.13559 | -82.72752 | 27088 ft | 376 kts | 317° |
| 2026-05-05 17:31 | 32.15537 | -82.74775 | 27103 ft | 376 kts | 316° |
| 2026-05-05 17:32 | 32.17516 | -82.76800 | 27099 ft | 376 kts | 316° |
| 2026-05-05 17:32 | 32.19493 | -82.78825 | 27081 ft | 376 kts | 316° |
| 2026-05-05 17:32 | 32.21470 | -82.80850 | 27085 ft | 376 kts | 316° |
| 2026-05-05 17:32 | 32.23420 | -82.82849 | 27090 ft | 376 kts | 316° |
| 2026-05-05 17:33 | 32.25398 | -82.84878 | 27090 ft | 376 kts | 316° |
| 2026-05-05 17:33 | 32.27372 | -82.86904 | 27088 ft | 376 kts | 316° |
| 2026-05-05 17:33 | 32.29348 | -82.88934 | 27086 ft | 376 kts | 316° |
| 2026-05-05 17:33 | 32.31323 | -82.90963 | 27110 ft | 376 kts | 316° |
| 2026-05-05 17:34 | 32.33293 | -82.92990 | 27108 ft | 376 kts | 316° |
| 2026-05-05 17:34 | 32.35265 | -82.95018 | 27086 ft | 375 kts | 316° |
| 2026-05-05 17:34 | 32.37237 | -82.97048 | 27085 ft | 376 kts | 316° |
| 2026-05-05 17:34 | 32.39212 | -82.99080 | 27084 ft | 376 kts | 316° |
| 2026-05-05 17:35 | 32.41160 | -83.01084 | 27092 ft | 376 kts | 316° |
| 2026-05-05 17:35 | 32.43132 | -83.03111 | 27119 ft | 376 kts | 316° |
| 2026-05-05 17:35 | 32.45111 | -83.05148 | 27093 ft | 376 kts | 316° |
| 2026-05-05 17:35 | 32.47090 | -83.07186 | 27097 ft | 376 kts | 316° |
| 2026-05-05 17:36 | 32.49066 | -83.09223 | 27087 ft | 374 kts | 316° |
| 2026-05-05 17:36 | 32.50996 | -83.11211 | 27073 ft | 360 kts | 316° |
| 2026-05-05 17:36 | 32.52851 | -83.13124 | 26879 ft | 351 kts | 316° |
| 2026-05-05 17:36 | 32.54672 | -83.15005 | 26578 ft | 344 kts | 316° |
| 2026-05-05 17:37 | 32.56448 | -83.16840 | 26157 ft | 341 kts | 316° |
| 2026-05-05 17:37 | 32.58226 | -83.18679 | 25703 ft | 338 kts | 315° |
| 2026-05-05 17:37 | 32.59996 | -83.20511 | 25175 ft | 339 kts | 315° |
| 2026-05-05 17:37 | 32.61771 | -83.22352 | 24682 ft | 338 kts | 315° |
| 2026-05-05 17:38 | 32.63548 | -83.24196 | 24198 ft | 338 kts | 315° |
| 2026-05-05 17:38 | 32.65317 | -83.26032 | 23741 ft | 337 kts | 315° |
| 2026-05-05 17:38 | 32.67082 | -83.27866 | 23214 ft | 336 kts | 315° |
| 2026-05-05 17:38 | 32.68836 | -83.29688 | 22740 ft | 334 kts | 315° |
| 2026-05-05 17:39 | 32.70579 | -83.31501 | 22278 ft | 332 kts | 315° |
| 2026-05-05 17:39 | 32.72310 | -83.33302 | 21837 ft | 330 kts | 316° |
| 2026-05-05 17:39 | 32.74010 | -83.35071 | 21399 ft | 328 kts | 316° |
| 2026-05-05 17:39 | 32.75719 | -83.36851 | 20962 ft | 326 kts | 316° |
| 2026-05-05 17:40 | 32.77418 | -83.38623 | 20530 ft | 325 kts | 316° |
| 2026-05-05 17:40 | 32.79117 | -83.40394 | 20103 ft | 324 kts | 316° |
| 2026-05-05 17:40 | 32.80806 | -83.42157 | 19674 ft | 323 kts | 316° |
| 2026-05-05 17:40 | 32.82496 | -83.43922 | 19227 ft | 324 kts | 316° |
| 2026-05-05 17:41 | 32.84185 | -83.45686 | 18811 ft | 323 kts | 316° |
| 2026-05-05 17:41 | 32.85873 | -83.47450 | 18367 ft | 323 kts | 316° |
| 2026-05-05 17:41 | 32.87561 | -83.49216 | 17887 ft | 323 kts | 316° |
| 2026-05-05 17:41 | 32.89252 | -83.50985 | 17363 ft | 324 kts | 316° |
| 2026-05-05 17:42 | 32.90942 | -83.52754 | 16928 ft | 323 kts | 316° |
| 2026-05-05 17:42 | 32.92626 | -83.54516 | 16491 ft | 321 kts | 316° |
| 2026-05-05 17:42 | 32.94301 | -83.56270 | 16071 ft | 320 kts | 316° |
| 2026-05-05 17:42 | 32.95981 | -83.58031 | 15418 ft | 326 kts | 316° |
| 2026-05-05 17:43 | 32.97688 | -83.59819 | 14936 ft | 327 kts | 316° |
| 2026-05-05 17:43 | 32.99392 | -83.61604 | 14506 ft | 326 kts | 316° |
| 2026-05-05 17:43 | 33.01074 | -83.63365 | 14078 ft | 325 kts | 316° |
| 2026-05-05 17:43 | 33.02771 | -83.65144 | 13643 ft | 324 kts | 316° |
| 2026-05-05 17:44 | 33.04465 | -83.66921 | 13191 ft | 323 kts | 316° |
| 2026-05-05 17:44 | 33.06149 | -83.68688 | 12763 ft | 321 kts | 316° |
| 2026-05-05 17:44 | 33.07819 | -83.70444 | 12348 ft | 320 kts | 316° |
| 2026-05-05 17:44 | 33.09485 | -83.72194 | 11941 ft | 318 kts | 316° |
| 2026-05-05 17:45 | 33.11142 | -83.73936 | 11582 ft | 315 kts | 316° |
| 2026-05-05 17:45 | 33.12758 | -83.75634 | 11459 ft | 305 kts | 316° |
| 2026-05-05 17:45 | 33.14328 | -83.77285 | 11247 ft | 298 kts | 315° |
| 2026-05-05 17:45 | 33.15883 | -83.78928 | 10870 ft | 298 kts | 315° |
| 2026-05-05 17:46 | 33.17428 | -83.80562 | 10527 ft | 296 kts | 315° |
| 2026-05-05 17:46 | 33.18970 | -83.82194 | 10202 ft | 295 kts | 315° |
| 2026-05-05 17:46 | 33.20431 | -83.83854 | 10047 ft | 286 kts | 311° |
| 2026-05-05 17:46 | 33.21826 | -83.85527 | 9754 ft | 284 kts | 311° |
| 2026-05-05 17:47 | 33.23210 | -83.87202 | 9424 ft | 283 kts | 311° |
| 2026-05-05 17:47 | 33.24598 | -83.88873 | 9082 ft | 283 kts | 311° |
| 2026-05-05 17:47 | 33.25970 | -83.90515 | 8743 ft | 282 kts | 311° |
| 2026-05-05 17:47 | 33.27358 | -83.92173 | 8418 ft | 282 kts | 311° |
| 2026-05-05 17:48 | 33.28746 | -83.93828 | 8106 ft | 280 kts | 311° |
| 2026-05-05 17:48 | 33.30112 | -83.95458 | 8001 ft | 273 kts | 311° |
| 2026-05-05 17:48 | 33.31441 | -83.97046 | 7974 ft | 268 kts | 311° |
| 2026-05-05 17:48 | 33.32757 | -83.98623 | 7988 ft | 267 kts | 311° |
| 2026-05-05 17:49 | 33.34075 | -84.00202 | 7689 ft | 272 kts | 311° |
| 2026-05-05 17:49 | 33.35430 | -84.01804 | 7337 ft | 275 kts | 316° |
| 2026-05-05 17:49 | 33.37140 | -84.02858 | 6948 ft | 285 kts | 347° |
| 2026-05-05 17:49 | 33.39121 | -84.03006 | 6629 ft | 287 kts | 358° |
| 2026-05-05 17:50 | 33.41094 | -84.03015 | 6277 ft | 289 kts | 358° |
| 2026-05-05 17:50 | 33.43108 | -84.03040 | 5873 ft | 290 kts | 355° |
| 2026-05-05 17:50 | 33.45000 | -84.03704 | 5643 ft | 280 kts | 326° |
| 2026-05-05 17:50 | 33.46469 | -84.05174 | 5395 ft | 273 kts | 307° |
| 2026-05-05 17:51 | 33.47648 | -84.06934 | 5176 ft | 269 kts | 304° |
| 2026-05-05 17:51 | 33.48783 | -84.08704 | 4927 ft | 267 kts | 304° |
| 2026-05-05 17:51 | 33.49915 | -84.10469 | 4665 ft | 266 kts | 304° |
| 2026-05-05 17:51 | 33.51037 | -84.12209 | 4457 ft | 261 kts | 304° |
| 2026-05-05 17:52 | 33.52133 | -84.13899 | 4213 ft | 254 kts | 305° |
| 2026-05-05 17:52 | 33.53203 | -84.15544 | 3966 ft | 245 kts | 305° |
| 2026-05-05 17:52 | 33.54234 | -84.17124 | 3735 ft | 236 kts | 304° |
| 2026-05-05 17:52 | 33.55230 | -84.18650 | 3470 ft | 228 kts | 304° |
| 2026-05-05 17:53 | 33.56179 | -84.20106 | 3221 ft | 221 kts | 303° |
| 2026-05-05 17:53 | 33.57119 | -84.21547 | 2994 ft | 219 kts | 303° |
| 2026-05-05 17:53 | 33.58038 | -84.22950 | 2848 ft | 207 kts | 303° |
| 2026-05-05 17:53 | 33.58908 | -84.24280 | 2653 ft | 200 kts | 303° |
| 2026-05-05 17:54 | 33.59757 | -84.25581 | 2532 ft | 196 kts | 304° |
| 2026-05-05 17:54 | 33.60607 | -84.26883 | 2514 ft | 200 kts | 303° |
| 2026-05-05 17:54 | 33.61479 | -84.28220 | 2505 ft | 206 kts | 303° |
| 2026-05-05 17:54 | 33.62351 | -84.29555 | 2513 ft | 201 kts | 302° |
| 2026-05-05 17:55 | 33.63100 | -84.30951 | 2472 ft | 194 kts | 276° |
| 2026-05-05 17:55 | 33.63164 | -84.32513 | 2512 ft | 190 kts | 263° |
| 2026-05-05 17:55 | 33.63186 | -84.34134 | 2281 ft | 193 kts | 264° |
| 2026-05-05 17:55 | 33.63189 | -84.35675 | 2065 ft | 181 kts | 263° |
| 2026-05-05 17:56 | 33.63185 | -84.37124 | 1855 ft | 164 kts | 264° |
| 2026-05-05 17:56 | 33.63187 | -84.38428 | 1618 ft | 147 kts | 264° |
| 2026-05-05 17:56 | 33.63184 | -84.39605 | 1408 ft | 137 kts | 264° |
| 2026-05-05 17:56 | 33.63188 | -84.40742 | 1259 ft | 138 kts | 263° |
| 2026-05-05 17:57 | 33.63186 | -84.41939 | 1086 ft | 146 kts | 264° |
| 2026-05-05 17:57 | 33.63179 | -84.43073 | 1037 ft | 120 kts | 271° |
| 2026-05-05 17:57 | 33.63219 | -84.43611 | 1021 ft | 36 kts | 293° |
| 2026-05-05 17:57 | 33.63326 | -84.43817 | 1011 ft | 27 kts | 299° |
| 2026-05-05 17:58 | 33.63361 | -84.44008 | 1013 ft | 20 kts | 270° |
| 2026-05-05 17:58 | 33.63368 | -84.44149 | 1013 ft | 7 kts | 290° |
| 2026-05-05 17:58 | 33.63392 | -84.44187 | 1015 ft | 6 kts | 330° |
| 2026-05-05 17:58 | 33.63468 | -84.44196 | 1020 ft | 22 kts | 358° |
| 2026-05-05 17:59 | 33.63640 | -84.44190 | 1009 ft | 25 kts | 24° |
| 2026-05-05 17:59 | 33.63667 | -84.44003 | 1008 ft | 23 kts | 90° |
| 2026-05-05 17:59 | 33.63678 | -84.43815 | 1008 ft | 22 kts | 58° |
| 2026-05-05 17:59 | 33.63800 | -84.43802 | 1006 ft | 11 kts | 307° |
| 2026-05-05 18:00 | 33.63808 | -84.43861 | 1006 ft | 0 kts | 270° |
| 2026-05-05 18:00 | 33.63808 | -84.43865 | 1006 ft | 4 kts | 271° |
| 2026-05-05 18:00 | 33.63808 | -84.43870 | 1006 ft | 0 kts | 271° |